sensor_id;sensor_type;location;lat;lon;timestamp;P1;durP1;ratioP1;P2;durP2;ratioP2
1613;SDS011;800;48.824;9.346;2023-04-12T00:02:10;5.50;;;3.40;;
1613;SDS011;800;48.824;9.346;2023-04-12T00:04:36;4.13;;;2.30;;
1613;SDS011;800;48.824;9.346;2023-04-12T00:07:02;2.40;;;2.20;;
1613;SDS011;800;48.824;9.346;2023-04-12T00:09:29;3.83;;;2.47;;
1613;SDS011;800;48.824;9.346;2023-04-12T00:11:56;4.27;;;2.40;;
1613;SDS011;800;48.824;9.346;2023-04-12T00:14:23;6.00;;;3.00;;
1613;SDS011;800;48.824;9.346;2023-04-12T00:16:51;3.50;;;2.47;;
1613;SDS011;800;48.824;9.346;2023-04-12T00:19:17;6.13;;;2.57;;
1613;SDS011;800;48.824;9.346;2023-04-12T00:21:43;6.50;;;3.00;;
1613;SDS011;800;48.824;9.346;2023-04-12T00:24:08;8.37;;;3.70;;
1613;SDS011;800;48.824;9.346;2023-04-12T00:26:34;5.03;;;2.63;;
1613;SDS011;800;48.824;9.346;2023-04-12T00:29:00;7.53;;;2.50;;
1613;SDS011;800;48.824;9.346;2023-04-12T00:31:25;8.90;;;3.13;;
1613;SDS011;800;48.824;9.346;2023-04-12T00:33:51;3.63;;;2.00;;
1613;SDS011;800;48.824;9.346;2023-04-12T00:36:17;5.30;;;2.43;;
1613;SDS011;800;48.824;9.346;2023-04-12T00:38:43;3.60;;;3.17;;
1613;SDS011;800;48.824;9.346;2023-04-12T00:41:10;3.53;;;2.90;;
1613;SDS011;800;48.824;9.346;2023-04-12T00:43:36;8.13;;;2.80;;
1613;SDS011;800;48.824;9.346;2023-04-12T00:46:01;5.10;;;2.77;;
1613;SDS011;800;48.824;9.346;2023-04-12T00:48:27;4.47;;;2.53;;
1613;SDS011;800;48.824;9.346;2023-04-12T00:50:54;3.50;;;2.57;;
1613;SDS011;800;48.824;9.346;2023-04-12T00:53:21;3.03;;;2.30;;
1613;SDS011;800;48.824;9.346;2023-04-12T00:55:47;5.83;;;3.00;;
1613;SDS011;800;48.824;9.346;2023-04-12T00:58:14;6.30;;;3.07;;
1613;SDS011;800;48.824;9.346;2023-04-12T01:00:41;4.43;;;2.43;;
1613;SDS011;800;48.824;9.346;2023-04-12T01:03:08;7.00;;;2.73;;
1613;SDS011;800;48.824;9.346;2023-04-12T01:05:39;4.33;;;2.90;;
1613;SDS011;800;48.824;9.346;2023-04-12T01:08:14;5.27;;;2.43;;
1613;SDS011;800;48.824;9.346;2023-04-12T01:14:07;5.13;;;2.30;;
1613;SDS011;800;48.824;9.346;2023-04-12T01:16:55;5.67;;;2.40;;
1613;SDS011;800;48.824;9.346;2023-04-12T01:22:05;5.70;;;2.93;;
1613;SDS011;800;48.824;9.346;2023-04-12T01:27:49;4.47;;;2.70;;
1613;SDS011;800;48.824;9.346;2023-04-12T01:30:18;3.63;;;2.57;;
1613;SDS011;800;48.824;9.346;2023-04-12T01:32:49;4.63;;;2.60;;
1613;SDS011;800;48.824;9.346;2023-04-12T01:35:17;4.17;;;2.73;;
1613;SDS011;800;48.824;9.346;2023-04-12T01:37:44;7.37;;;3.00;;
1613;SDS011;800;48.824;9.346;2023-04-12T01:40:10;6.23;;;2.77;;
1613;SDS011;800;48.824;9.346;2023-04-12T01:42:37;3.23;;;2.60;;
1613;SDS011;800;48.824;9.346;2023-04-12T01:45:03;4.27;;;2.60;;
1613;SDS011;800;48.824;9.346;2023-04-12T01:47:29;4.43;;;2.50;;
1613;SDS011;800;48.824;9.346;2023-04-12T01:50:08;5.60;;;3.07;;
1613;SDS011;800;48.824;9.346;2023-04-12T01:52:49;8.37;;;2.60;;
1613;SDS011;800;48.824;9.346;2023-04-12T01:55:21;8.23;;;5.13;;
1613;SDS011;800;48.824;9.346;2023-04-12T01:57:49;3.83;;;2.67;;
1613;SDS011;800;48.824;9.346;2023-04-12T02:00:17;6.23;;;3.13;;
1613;SDS011;800;48.824;9.346;2023-04-12T02:02:43;4.20;;;2.70;;
1613;SDS011;800;48.824;9.346;2023-04-12T02:05:09;4.50;;;2.00;;
1613;SDS011;800;48.824;9.346;2023-04-12T02:07:35;4.67;;;2.50;;
1613;SDS011;800;48.824;9.346;2023-04-12T02:10:01;7.47;;;2.93;;
1613;SDS011;800;48.824;9.346;2023-04-12T02:12:27;5.13;;;2.93;;
1613;SDS011;800;48.824;9.346;2023-04-12T02:14:53;6.37;;;2.90;;
1613;SDS011;800;48.824;9.346;2023-04-12T02:17:18;2.43;;;2.23;;
1613;SDS011;800;48.824;9.346;2023-04-12T02:19:45;3.57;;;3.17;;
1613;SDS011;800;48.824;9.346;2023-04-12T02:22:11;3.43;;;3.13;;
1613;SDS011;800;48.824;9.346;2023-04-12T02:24:37;8.67;;;4.07;;
1613;SDS011;800;48.824;9.346;2023-04-12T02:27:02;4.37;;;3.37;;
1613;SDS011;800;48.824;9.346;2023-04-12T02:29:28;6.47;;;4.10;;
1613;SDS011;800;48.824;9.346;2023-04-12T02:31:53;5.30;;;3.10;;
1613;SDS011;800;48.824;9.346;2023-04-12T02:34:19;4.80;;;3.40;;
1613;SDS011;800;48.824;9.346;2023-04-12T02:36:46;4.30;;;3.40;;
1613;SDS011;800;48.824;9.346;2023-04-12T02:39:13;5.30;;;3.20;;
1613;SDS011;800;48.824;9.346;2023-04-12T02:41:42;6.13;;;3.47;;
1613;SDS011;800;48.824;9.346;2023-04-12T02:44:08;4.30;;;3.27;;
1613;SDS011;800;48.824;9.346;2023-04-12T02:46:33;12.00;;;3.10;;
1613;SDS011;800;48.824;9.346;2023-04-12T02:48:59;5.53;;;3.13;;
1613;SDS011;800;48.824;9.346;2023-04-12T02:51:24;5.83;;;2.50;;
1613;SDS011;800;48.824;9.346;2023-04-12T02:53:50;5.77;;;2.27;;
1613;SDS011;800;48.824;9.346;2023-04-12T02:56:16;3.77;;;2.07;;
1613;SDS011;800;48.824;9.346;2023-04-12T02:58:43;5.70;;;2.50;;
1613;SDS011;800;48.824;9.346;2023-04-12T03:01:08;4.13;;;2.60;;
1613;SDS011;800;48.824;9.346;2023-04-12T03:03:37;6.20;;;3.00;;
1613;SDS011;800;48.824;9.346;2023-04-12T03:06:03;8.73;;;3.20;;
1613;SDS011;800;48.824;9.346;2023-04-12T03:08:29;3.83;;;3.00;;
1613;SDS011;800;48.824;9.346;2023-04-12T03:10:55;5.10;;;3.27;;
1613;SDS011;800;48.824;9.346;2023-04-12T03:13:21;6.83;;;2.97;;
1613;SDS011;800;48.824;9.346;2023-04-12T03:15:47;3.20;;;2.50;;
1613;SDS011;800;48.824;9.346;2023-04-12T03:18:13;5.63;;;2.80;;
1613;SDS011;800;48.824;9.346;2023-04-12T03:20:40;3.97;;;2.57;;
1613;SDS011;800;48.824;9.346;2023-04-12T03:23:07;5.00;;;4.10;;
1613;SDS011;800;48.824;9.346;2023-04-12T03:25:33;7.60;;;3.23;;
1613;SDS011;800;48.824;9.346;2023-04-12T03:27:58;3.50;;;2.43;;
1613;SDS011;800;48.824;9.346;2023-04-12T03:30:24;5.30;;;2.40;;
1613;SDS011;800;48.824;9.346;2023-04-12T03:32:49;9.20;;;3.67;;
1613;SDS011;800;48.824;9.346;2023-04-12T03:35:15;8.90;;;3.43;;
1613;SDS011;800;48.824;9.346;2023-04-12T03:37:41;5.20;;;3.27;;
1613;SDS011;800;48.824;9.346;2023-04-12T03:40:07;4.43;;;2.60;;
1613;SDS011;800;48.824;9.346;2023-04-12T03:42:36;4.40;;;2.90;;
1613;SDS011;800;48.824;9.346;2023-04-12T03:45:02;3.17;;;2.80;;
1613;SDS011;800;48.824;9.346;2023-04-12T03:47:28;4.13;;;2.70;;
1613;SDS011;800;48.824;9.346;2023-04-12T03:49:54;4.80;;;2.80;;
1613;SDS011;800;48.824;9.346;2023-04-12T03:52:20;7.30;;;3.67;;
1613;SDS011;800;48.824;9.346;2023-04-12T03:54:46;5.83;;;2.83;;
1613;SDS011;800;48.824;9.346;2023-04-12T03:57:11;2.83;;;2.50;;
1613;SDS011;800;48.824;9.346;2023-04-12T03:59:37;4.13;;;2.37;;
1613;SDS011;800;48.824;9.346;2023-04-12T04:02:04;7.37;;;2.97;;
1613;SDS011;800;48.824;9.346;2023-04-12T04:04:30;5.30;;;2.60;;
1613;SDS011;800;48.824;9.346;2023-04-12T04:06:55;5.30;;;3.10;;
1613;SDS011;800;48.824;9.346;2023-04-12T04:09:21;4.57;;;2.83;;
1613;SDS011;800;48.824;9.346;2023-04-12T04:11:46;3.40;;;2.33;;
1613;SDS011;800;48.824;9.346;2023-04-12T04:14:13;4.27;;;2.30;;
1613;SDS011;800;48.824;9.346;2023-04-12T04:16:39;3.70;;;2.17;;
1613;SDS011;800;48.824;9.346;2023-04-12T04:19:05;7.00;;;2.90;;
1613;SDS011;800;48.824;9.346;2023-04-12T04:21:30;8.10;;;3.37;;
1613;SDS011;800;48.824;9.346;2023-04-12T04:23:58;8.50;;;3.33;;
1613;SDS011;800;48.824;9.346;2023-04-12T04:26:25;10.17;;;4.13;;
1613;SDS011;800;48.824;9.346;2023-04-12T04:29:00;9.60;;;3.93;;
1613;SDS011;800;48.824;9.346;2023-04-12T04:31:29;6.90;;;4.37;;
1613;SDS011;800;48.824;9.346;2023-04-12T04:34:04;5.33;;;3.10;;
1613;SDS011;800;48.824;9.346;2023-04-12T04:36:33;4.60;;;2.93;;
1613;SDS011;800;48.824;9.346;2023-04-12T04:39:02;4.10;;;2.17;;
1613;SDS011;800;48.824;9.346;2023-04-12T04:41:31;4.73;;;2.70;;
1613;SDS011;800;48.824;9.346;2023-04-12T04:44:03;3.70;;;2.40;;
1613;SDS011;800;48.824;9.346;2023-04-12T04:46:34;5.37;;;2.77;;
1613;SDS011;800;48.824;9.346;2023-04-12T04:49:03;5.90;;;2.80;;
1613;SDS011;800;48.824;9.346;2023-04-12T04:51:30;8.10;;;4.50;;
1613;SDS011;800;48.824;9.346;2023-04-12T04:53:55;9.97;;;4.00;;
1613;SDS011;800;48.824;9.346;2023-04-12T04:56:21;3.07;;;2.87;;
1613;SDS011;800;48.824;9.346;2023-04-12T04:58:47;4.50;;;3.00;;
1613;SDS011;800;48.824;9.346;2023-04-12T05:01:14;3.70;;;3.10;;
1613;SDS011;800;48.824;9.346;2023-04-12T05:03:40;5.00;;;2.67;;
1613;SDS011;800;48.824;9.346;2023-04-12T05:06:08;4.40;;;3.50;;
1613;SDS011;800;48.824;9.346;2023-04-12T05:08:34;8.40;;;4.10;;
1613;SDS011;800;48.824;9.346;2023-04-12T05:11:00;6.50;;;3.47;;
1613;SDS011;800;48.824;9.346;2023-04-12T05:13:25;5.80;;;2.90;;
1613;SDS011;800;48.824;9.346;2023-04-12T05:15:51;6.50;;;3.10;;
1613;SDS011;800;48.824;9.346;2023-04-12T05:18:17;4.30;;;3.03;;
1613;SDS011;800;48.824;9.346;2023-04-12T05:20:42;7.50;;;3.30;;
1613;SDS011;800;48.824;9.346;2023-04-12T05:23:08;2.70;;;2.50;;
1613;SDS011;800;48.824;9.346;2023-04-12T05:25:33;5.67;;;2.50;;
1613;SDS011;800;48.824;9.346;2023-04-12T05:27:59;5.70;;;2.80;;
1613;SDS011;800;48.824;9.346;2023-04-12T05:30:25;4.17;;;2.60;;
1613;SDS011;800;48.824;9.346;2023-04-12T05:32:51;2.93;;;2.47;;
1613;SDS011;800;48.824;9.346;2023-04-12T05:35:16;3.20;;;2.90;;
1613;SDS011;800;48.824;9.346;2023-04-12T05:37:42;3.67;;;2.80;;
1613;SDS011;800;48.824;9.346;2023-04-12T05:40:07;7.00;;;3.43;;
1613;SDS011;800;48.824;9.346;2023-04-12T05:42:34;5.03;;;4.03;;
1613;SDS011;800;48.824;9.346;2023-04-12T05:45:01;2.30;;;2.10;;
1613;SDS011;800;48.824;9.346;2023-04-12T05:47:30;3.00;;;2.77;;
1613;SDS011;800;48.824;9.346;2023-04-12T05:49:56;5.60;;;5.10;;
1613;SDS011;800;48.824;9.346;2023-04-12T05:52:21;4.90;;;4.27;;
1613;SDS011;800;48.824;9.346;2023-04-12T05:54:47;4.97;;;4.30;;
1613;SDS011;800;48.824;9.346;2023-04-12T05:57:12;7.10;;;5.07;;
1613;SDS011;800;48.824;9.346;2023-04-12T05:59:39;5.27;;;3.63;;
1613;SDS011;800;48.824;9.346;2023-04-12T06:02:05;7.70;;;4.00;;
1613;SDS011;800;48.824;9.346;2023-04-12T06:04:31;5.33;;;3.90;;
1613;SDS011;800;48.824;9.346;2023-04-12T06:06:57;4.33;;;3.60;;
1613;SDS011;800;48.824;9.346;2023-04-12T06:09:22;7.90;;;4.80;;
1613;SDS011;800;48.824;9.346;2023-04-12T06:11:48;3.67;;;2.60;;
1613;SDS011;800;48.824;9.346;2023-04-12T06:14:13;7.27;;;3.33;;
1613;SDS011;800;48.824;9.346;2023-04-12T06:16:39;8.60;;;3.20;;
1613;SDS011;800;48.824;9.346;2023-04-12T06:19:05;4.57;;;3.13;;
1613;SDS011;800;48.824;9.346;2023-04-12T06:21:30;4.03;;;2.80;;
1613;SDS011;800;48.824;9.346;2023-04-12T06:23:56;3.87;;;2.47;;
1613;SDS011;800;48.824;9.346;2023-04-12T06:26:22;5.20;;;2.40;;
1613;SDS011;800;48.824;9.346;2023-04-12T06:28:47;3.80;;;3.40;;
1613;SDS011;800;48.824;9.346;2023-04-12T06:31:14;2.77;;;2.50;;
1613;SDS011;800;48.824;9.346;2023-04-12T06:33:41;2.93;;;2.60;;
1613;SDS011;800;48.824;9.346;2023-04-12T06:36:06;4.07;;;3.00;;
1613;SDS011;800;48.824;9.346;2023-04-12T06:38:32;5.10;;;2.60;;
1613;SDS011;800;48.824;9.346;2023-04-12T06:40:58;8.13;;;3.40;;
1613;SDS011;800;48.824;9.346;2023-04-12T06:43:24;3.27;;;2.87;;
1613;SDS011;800;48.824;9.346;2023-04-12T06:45:50;3.87;;;2.70;;
1613;SDS011;800;48.824;9.346;2023-04-12T06:48:15;3.73;;;3.00;;
1613;SDS011;800;48.824;9.346;2023-04-12T06:50:41;4.00;;;2.83;;
1613;SDS011;800;48.824;9.346;2023-04-12T06:53:08;4.57;;;3.20;;
1613;SDS011;800;48.824;9.346;2023-04-12T06:55:33;5.17;;;3.10;;
1613;SDS011;800;48.824;9.346;2023-04-12T06:57:59;4.50;;;2.67;;
1613;SDS011;800;48.824;9.346;2023-04-12T07:00:25;3.27;;;2.77;;
1613;SDS011;800;48.824;9.346;2023-04-12T07:02:51;5.57;;;2.70;;
1613;SDS011;800;48.824;9.346;2023-04-12T07:05:16;5.20;;;2.90;;
1613;SDS011;800;48.824;9.346;2023-04-12T07:07:43;2.90;;;2.70;;
1613;SDS011;800;48.824;9.346;2023-04-12T07:10:09;3.07;;;2.40;;
1613;SDS011;800;48.824;9.346;2023-04-12T07:12:34;4.07;;;2.60;;
1613;SDS011;800;48.824;9.346;2023-04-12T07:15:00;2.93;;;2.20;;
1613;SDS011;800;48.824;9.346;2023-04-12T07:17:25;3.47;;;2.47;;
1613;SDS011;800;48.824;9.346;2023-04-12T07:19:52;2.87;;;2.57;;
1613;SDS011;800;48.824;9.346;2023-04-12T07:22:18;4.10;;;2.50;;
1613;SDS011;800;48.824;9.346;2023-04-12T07:24:44;2.97;;;2.67;;
1613;SDS011;800;48.824;9.346;2023-04-12T07:27:09;2.57;;;2.00;;
1613;SDS011;800;48.824;9.346;2023-04-12T07:29:35;2.87;;;2.63;;
1613;SDS011;800;48.824;9.346;2023-04-12T07:32:01;3.83;;;2.47;;
1613;SDS011;800;48.824;9.346;2023-04-12T07:34:28;3.40;;;2.77;;
1613;SDS011;800;48.824;9.346;2023-04-12T07:36:54;3.13;;;2.80;;
1613;SDS011;800;48.824;9.346;2023-04-12T07:39:20;2.77;;;2.57;;
1613;SDS011;800;48.824;9.346;2023-04-12T07:41:48;3.73;;;2.37;;
1613;SDS011;800;48.824;9.346;2023-04-12T07:44:14;4.13;;;2.70;;
1613;SDS011;800;48.824;9.346;2023-04-12T07:46:40;2.33;;;2.10;;
1613;SDS011;800;48.824;9.346;2023-04-12T07:49:06;2.83;;;2.33;;
1613;SDS011;800;48.824;9.346;2023-04-12T07:51:32;4.17;;;2.60;;
1613;SDS011;800;48.824;9.346;2023-04-12T07:53:58;3.43;;;1.70;;
1613;SDS011;800;48.824;9.346;2023-04-12T07:56:23;2.60;;;2.10;;
1613;SDS011;800;48.824;9.346;2023-04-12T07:58:49;4.03;;;2.20;;
1613;SDS011;800;48.824;9.346;2023-04-12T08:01:15;2.20;;;2.00;;
1613;SDS011;800;48.824;9.346;2023-04-12T08:03:40;3.93;;;2.20;;
1613;SDS011;800;48.824;9.346;2023-04-12T08:06:06;3.60;;;2.60;;
1613;SDS011;800;48.824;9.346;2023-04-12T08:08:32;3.87;;;1.70;;
1613;SDS011;800;48.824;9.346;2023-04-12T08:10:58;3.00;;;2.13;;
1613;SDS011;800;48.824;9.346;2023-04-12T08:13:26;2.90;;;2.30;;
1613;SDS011;800;48.824;9.346;2023-04-12T08:15:52;2.70;;;2.40;;
1613;SDS011;800;48.824;9.346;2023-04-12T08:18:17;2.00;;;1.77;;
1613;SDS011;800;48.824;9.346;2023-04-12T08:20:43;2.27;;;2.00;;
1613;SDS011;800;48.824;9.346;2023-04-12T08:23:09;3.07;;;2.83;;
1613;SDS011;800;48.824;9.346;2023-04-12T08:25:35;4.30;;;2.10;;
1613;SDS011;800;48.824;9.346;2023-04-12T08:28:02;2.23;;;2.03;;
1613;SDS011;800;48.824;9.346;2023-04-12T08:30:28;2.70;;;2.50;;
1613;SDS011;800;48.824;9.346;2023-04-12T08:32:53;2.50;;;2.30;;
1613;SDS011;800;48.824;9.346;2023-04-12T08:35:19;3.07;;;2.03;;
1613;SDS011;800;48.824;9.346;2023-04-12T08:37:46;2.27;;;2.07;;
1613;SDS011;800;48.824;9.346;2023-04-12T08:40:11;2.03;;;1.87;;
1613;SDS011;800;48.824;9.346;2023-04-12T08:42:37;1.67;;;1.57;;
1613;SDS011;800;48.824;9.346;2023-04-12T08:45:04;2.50;;;1.80;;
1613;SDS011;800;48.824;9.346;2023-04-12T08:47:31;3.57;;;1.53;;
1613;SDS011;800;48.824;9.346;2023-04-12T08:49:59;2.27;;;1.80;;
1613;SDS011;800;48.824;9.346;2023-04-12T08:52:26;3.30;;;2.30;;
1613;SDS011;800;48.824;9.346;2023-04-12T08:54:53;4.50;;;1.83;;
1613;SDS011;800;48.824;9.346;2023-04-12T08:57:19;2.20;;;1.40;;
1613;SDS011;800;48.824;9.346;2023-04-12T08:59:46;5.23;;;2.10;;
1613;SDS011;800;48.824;9.346;2023-04-12T09:02:14;2.60;;;1.80;;
1613;SDS011;800;48.824;9.346;2023-04-12T09:04:46;3.27;;;2.03;;
1613;SDS011;800;48.824;9.346;2023-04-12T09:07:13;4.77;;;2.30;;
1613;SDS011;800;48.824;9.346;2023-04-12T09:09:39;2.77;;;2.00;;
1613;SDS011;800;48.824;9.346;2023-04-12T09:12:06;5.53;;;2.10;;
1613;SDS011;800;48.824;9.346;2023-04-12T09:14:32;2.30;;;1.63;;
1613;SDS011;800;48.824;9.346;2023-04-12T09:16:57;2.47;;;1.80;;
1613;SDS011;800;48.824;9.346;2023-04-12T09:19:33;1.80;;;1.70;;
1613;SDS011;800;48.824;9.346;2023-04-12T09:22:00;2.77;;;2.17;;
1613;SDS011;800;48.824;9.346;2023-04-12T09:24:26;1.97;;;1.77;;
1613;SDS011;800;48.824;9.346;2023-04-12T09:27:02;2.20;;;2.00;;
1613;SDS011;800;48.824;9.346;2023-04-12T09:29:29;3.07;;;2.53;;
1613;SDS011;800;48.824;9.346;2023-04-12T09:32:02;2.47;;;2.27;;
1613;SDS011;800;48.824;9.346;2023-04-12T09:34:29;2.10;;;1.80;;
1613;SDS011;800;48.824;9.346;2023-04-12T09:36:56;1.77;;;1.67;;
1613;SDS011;800;48.824;9.346;2023-04-12T09:39:34;2.43;;;2.00;;
1613;SDS011;800;48.824;9.346;2023-04-12T09:42:03;2.70;;;2.50;;
1613;SDS011;800;48.824;9.346;2023-04-12T09:44:30;2.03;;;1.77;;
1613;SDS011;800;48.824;9.346;2023-04-12T09:46:55;3.67;;;2.57;;
1613;SDS011;800;48.824;9.346;2023-04-12T09:52:20;2.97;;;2.47;;
1613;SDS011;800;48.824;9.346;2023-04-12T09:54:46;3.90;;;1.97;;
1613;SDS011;800;48.824;9.346;2023-04-12T09:57:12;1.43;;;1.33;;
1613;SDS011;800;48.824;9.346;2023-04-12T09:59:43;3.93;;;1.90;;
1613;SDS011;800;48.824;9.346;2023-04-12T10:02:14;4.30;;;1.80;;
1613;SDS011;800;48.824;9.346;2023-04-12T10:04:41;2.90;;;2.10;;
1613;SDS011;800;48.824;9.346;2023-04-12T10:07:07;2.27;;;1.70;;
1613;SDS011;800;48.824;9.346;2023-04-12T10:09:33;1.70;;;1.60;;
1613;SDS011;800;48.824;9.346;2023-04-12T10:12:01;1.50;;;1.40;;
1613;SDS011;800;48.824;9.346;2023-04-12T10:14:27;2.10;;;1.80;;
1613;SDS011;800;48.824;9.346;2023-04-12T10:16:58;1.83;;;1.70;;
1613;SDS011;800;48.824;9.346;2023-04-12T10:19:25;3.60;;;2.00;;
1613;SDS011;800;48.824;9.346;2023-04-12T10:21:53;2.53;;;1.77;;
1613;SDS011;800;48.824;9.346;2023-04-12T10:24:22;1.80;;;1.70;;
1613;SDS011;800;48.824;9.346;2023-04-12T10:26:52;2.63;;;2.00;;
1613;SDS011;800;48.824;9.346;2023-04-12T10:29:27;2.67;;;1.70;;
1613;SDS011;800;48.824;9.346;2023-04-12T10:31:56;2.27;;;1.93;;
1613;SDS011;800;48.824;9.346;2023-04-12T10:34:42;4.03;;;2.20;;
1613;SDS011;800;48.824;9.346;2023-04-12T10:37:07;3.03;;;2.73;;
1613;SDS011;800;48.824;9.346;2023-04-12T10:39:35;3.67;;;1.83;;
1613;SDS011;800;48.824;9.346;2023-04-12T10:44:42;2.90;;;1.63;;
1613;SDS011;800;48.824;9.346;2023-04-12T10:47:07;1.77;;;1.50;;
1613;SDS011;800;48.824;9.346;2023-04-12T10:49:37;3.40;;;1.80;;
1613;SDS011;800;48.824;9.346;2023-04-12T10:52:12;5.27;;;1.97;;
1613;SDS011;800;48.824;9.346;2023-04-12T10:54:38;2.60;;;1.77;;
1613;SDS011;800;48.824;9.346;2023-04-12T10:57:05;1.30;;;1.20;;
1613;SDS011;800;48.824;9.346;2023-04-12T10:59:49;1.93;;;1.80;;
1613;SDS011;800;48.824;9.346;2023-04-12T11:02:16;5.00;;;2.23;;
1613;SDS011;800;48.824;9.346;2023-04-12T11:07:40;3.37;;;1.70;;
1613;SDS011;800;48.824;9.346;2023-04-12T11:10:13;3.33;;;1.70;;
1613;SDS011;800;48.824;9.346;2023-04-12T11:12:40;4.10;;;1.50;;
1613;SDS011;800;48.824;9.346;2023-04-12T11:15:12;1.60;;;1.43;;
1613;SDS011;800;48.824;9.346;2023-04-12T11:17:38;1.93;;;1.40;;
1613;SDS011;800;48.824;9.346;2023-04-12T11:20:04;3.00;;;1.70;;
1613;SDS011;800;48.824;9.346;2023-04-12T11:22:34;2.80;;;1.97;;
1613;SDS011;800;48.824;9.346;2023-04-12T11:25:00;2.00;;;1.67;;
1613;SDS011;800;48.824;9.346;2023-04-12T11:27:27;3.80;;;1.90;;
1613;SDS011;800;48.824;9.346;2023-04-12T11:29:54;4.27;;;1.67;;
1613;SDS011;800;48.824;9.346;2023-04-12T11:32:22;2.50;;;1.40;;
1613;SDS011;800;48.824;9.346;2023-04-12T11:34:50;2.80;;;1.50;;
1613;SDS011;800;48.824;9.346;2023-04-12T11:37:19;2.53;;;1.70;;
1613;SDS011;800;48.824;9.346;2023-04-12T11:39:46;5.93;;;1.53;;
1613;SDS011;800;48.824;9.346;2023-04-12T11:42:16;2.53;;;1.33;;
1613;SDS011;800;48.824;9.346;2023-04-12T11:44:43;1.73;;;1.23;;
1613;SDS011;800;48.824;9.346;2023-04-12T11:47:19;1.83;;;1.00;;
1613;SDS011;800;48.824;9.346;2023-04-12T11:49:52;1.50;;;1.20;;
1613;SDS011;800;48.824;9.346;2023-04-12T11:52:21;1.70;;;1.60;;
1613;SDS011;800;48.824;9.346;2023-04-12T11:54:55;1.43;;;1.33;;
1613;SDS011;800;48.824;9.346;2023-04-12T11:57:23;3.83;;;1.30;;
1613;SDS011;800;48.824;9.346;2023-04-12T11:59:49;1.53;;;1.23;;
1613;SDS011;800;48.824;9.346;2023-04-12T12:02:15;1.10;;;1.10;;
1613;SDS011;800;48.824;9.346;2023-04-12T12:04:45;2.53;;;1.07;;
1613;SDS011;800;48.824;9.346;2023-04-12T12:07:12;2.27;;;1.57;;
1613;SDS011;800;48.824;9.346;2023-04-12T12:09:39;1.80;;;1.30;;
1613;SDS011;800;48.824;9.346;2023-04-12T12:12:06;1.37;;;1.10;;
1613;SDS011;800;48.824;9.346;2023-04-12T12:14:34;4.53;;;1.30;;
1613;SDS011;800;48.824;9.346;2023-04-12T12:17:00;1.60;;;1.00;;
1613;SDS011;800;48.824;9.346;2023-04-12T12:19:35;2.73;;;1.10;;
1613;SDS011;800;48.824;9.346;2023-04-12T12:24:44;2.13;;;1.33;;
1613;SDS011;800;48.824;9.346;2023-04-12T12:27:12;3.73;;;1.17;;
1613;SDS011;800;48.824;9.346;2023-04-12T12:29:41;1.60;;;1.50;;
1613;SDS011;800;48.824;9.346;2023-04-12T12:32:10;1.87;;;1.47;;
1613;SDS011;800;48.824;9.346;2023-04-12T12:34:37;1.40;;;1.30;;
1613;SDS011;800;48.824;9.346;2023-04-12T12:37:07;1.50;;;1.17;;
1613;SDS011;800;48.824;9.346;2023-04-12T12:39:36;1.90;;;1.20;;
1613;SDS011;800;48.824;9.346;2023-04-12T12:42:01;1.83;;;1.13;;
1613;SDS011;800;48.824;9.346;2023-04-12T12:44:30;2.90;;;1.27;;
1613;SDS011;800;48.824;9.346;2023-04-12T12:46:57;1.83;;;1.40;;
1613;SDS011;800;48.824;9.346;2023-04-12T12:49:24;1.37;;;1.20;;
1613;SDS011;800;48.824;9.346;2023-04-12T12:51:50;2.13;;;1.10;;
1613;SDS011;800;48.824;9.346;2023-04-12T12:54:16;0.83;;;0.83;;
1613;SDS011;800;48.824;9.346;2023-04-12T12:56:41;1.60;;;1.13;;
1613;SDS011;800;48.824;9.346;2023-04-12T12:59:07;1.17;;;1.07;;
1613;SDS011;800;48.824;9.346;2023-04-12T13:01:32;0.73;;;0.70;;
1613;SDS011;800;48.824;9.346;2023-04-12T13:03:58;0.80;;;0.70;;
1613;SDS011;800;48.824;9.346;2023-04-12T13:06:24;0.90;;;0.90;;
1613;SDS011;800;48.824;9.346;2023-04-12T13:08:51;2.03;;;1.33;;
1613;SDS011;800;48.824;9.346;2023-04-12T13:11:18;2.43;;;1.50;;
1613;SDS011;800;48.824;9.346;2023-04-12T13:13:45;2.33;;;1.03;;
1613;SDS011;800;48.824;9.346;2023-04-12T13:16:10;1.40;;;1.10;;
1613;SDS011;800;48.824;9.346;2023-04-12T13:18:36;1.10;;;1.00;;
1613;SDS011;800;48.824;9.346;2023-04-12T13:21:02;1.27;;;1.10;;
1613;SDS011;800;48.824;9.346;2023-04-12T13:23:27;3.03;;;1.13;;
1613;SDS011;800;48.824;9.346;2023-04-12T13:25:53;1.00;;;0.90;;
1613;SDS011;800;48.824;9.346;2023-04-12T13:28:18;1.93;;;1.07;;
1613;SDS011;800;48.824;9.346;2023-04-12T13:30:44;3.20;;;1.60;;
1613;SDS011;800;48.824;9.346;2023-04-12T13:33:12;2.10;;;1.03;;
1613;SDS011;800;48.824;9.346;2023-04-12T13:35:38;1.60;;;1.37;;
1613;SDS011;800;48.824;9.346;2023-04-12T13:38:03;1.27;;;0.90;;
1613;SDS011;800;48.824;9.346;2023-04-12T13:40:29;1.40;;;1.13;;
1613;SDS011;800;48.824;9.346;2023-04-12T13:42:54;4.90;;;1.23;;
1613;SDS011;800;48.824;9.346;2023-04-12T13:45:21;1.50;;;1.23;;
1613;SDS011;800;48.824;9.346;2023-04-12T13:47:46;4.80;;;1.40;;
1613;SDS011;800;48.824;9.346;2023-04-12T13:50:12;1.43;;;1.07;;
1613;SDS011;800;48.824;9.346;2023-04-12T13:52:38;1.03;;;1.00;;
1613;SDS011;800;48.824;9.346;2023-04-12T13:55:04;1.30;;;1.20;;
1613;SDS011;800;48.824;9.346;2023-04-12T13:57:32;1.30;;;1.03;;
1613;SDS011;800;48.824;9.346;2023-04-12T13:59:58;0.90;;;0.90;;
1613;SDS011;800;48.824;9.346;2023-04-12T14:02:25;1.40;;;0.90;;
1613;SDS011;800;48.824;9.346;2023-04-12T14:04:51;1.20;;;0.97;;
1613;SDS011;800;48.824;9.346;2023-04-12T14:07:17;1.70;;;0.90;;
1613;SDS011;800;48.824;9.346;2023-04-12T14:09:43;1.20;;;0.90;;
1613;SDS011;800;48.824;9.346;2023-04-12T14:12:09;3.70;;;1.00;;
1613;SDS011;800;48.824;9.346;2023-04-12T14:14:34;6.10;;;1.00;;
1613;SDS011;800;48.824;9.346;2023-04-12T14:17:00;1.33;;;0.93;;
1613;SDS011;800;48.824;9.346;2023-04-12T14:19:27;2.10;;;1.33;;
1613;SDS011;800;48.824;9.346;2023-04-12T14:21:52;1.17;;;1.13;;
1613;SDS011;800;48.824;9.346;2023-04-12T14:24:18;3.37;;;1.27;;
1613;SDS011;800;48.824;9.346;2023-04-12T14:26:45;2.30;;;1.60;;
1613;SDS011;800;48.824;9.346;2023-04-12T14:29:11;1.80;;;1.03;;
1613;SDS011;800;48.824;9.346;2023-04-12T14:31:37;1.67;;;0.90;;
1613;SDS011;800;48.824;9.346;2023-04-12T14:34:03;1.10;;;0.90;;
1613;SDS011;800;48.824;9.346;2023-04-12T14:36:29;0.93;;;0.83;;
1613;SDS011;800;48.824;9.346;2023-04-12T14:38:55;2.60;;;1.10;;
1613;SDS011;800;48.824;9.346;2023-04-12T14:41:21;1.93;;;1.10;;
1613;SDS011;800;48.824;9.346;2023-04-12T14:43:47;1.43;;;0.70;;
1613;SDS011;800;48.824;9.346;2023-04-12T14:46:14;1.10;;;1.00;;
1613;SDS011;800;48.824;9.346;2023-04-12T14:48:40;1.70;;;1.00;;
1613;SDS011;800;48.824;9.346;2023-04-12T14:51:06;1.90;;;1.23;;
1613;SDS011;800;48.824;9.346;2023-04-12T14:53:31;1.40;;;1.30;;
1613;SDS011;800;48.824;9.346;2023-04-12T14:55:57;3.03;;;0.80;;
1613;SDS011;800;48.824;9.346;2023-04-12T14:58:24;2.10;;;1.03;;
1613;SDS011;800;48.824;9.346;2023-04-12T15:00:53;1.10;;;1.00;;
1613;SDS011;800;48.824;9.346;2023-04-12T15:03:20;3.90;;;1.13;;
1613;SDS011;800;48.824;9.346;2023-04-12T15:05:45;1.07;;;1.03;;
1613;SDS011;800;48.824;9.346;2023-04-12T15:08:11;2.17;;;0.80;;
1613;SDS011;800;48.824;9.346;2023-04-12T15:10:36;1.50;;;1.40;;
1613;SDS011;800;48.824;9.346;2023-04-12T15:13:02;1.43;;;1.10;;
1613;SDS011;800;48.824;9.346;2023-04-12T15:15:27;1.13;;;0.70;;
1613;SDS011;800;48.824;9.346;2023-04-12T15:17:53;1.20;;;1.10;;
1613;SDS011;800;48.824;9.346;2023-04-12T15:20:18;1.90;;;1.10;;
1613;SDS011;800;48.824;9.346;2023-04-12T15:22:44;1.03;;;0.80;;
1613;SDS011;800;48.824;9.346;2023-04-12T15:25:10;0.80;;;0.80;;
1613;SDS011;800;48.824;9.346;2023-04-12T15:27:36;2.03;;;1.20;;
1613;SDS011;800;48.824;9.346;2023-04-12T15:30:02;2.40;;;1.07;;
1613;SDS011;800;48.824;9.346;2023-04-12T15:32:29;2.03;;;1.83;;
1613;SDS011;800;48.824;9.346;2023-04-12T15:35:01;1.73;;;0.80;;
1613;SDS011;800;48.824;9.346;2023-04-12T15:37:29;2.77;;;0.97;;
1613;SDS011;800;48.824;9.346;2023-04-12T15:39:58;0.93;;;0.80;;
1613;SDS011;800;48.824;9.346;2023-04-12T15:42:25;0.87;;;0.73;;
1613;SDS011;800;48.824;9.346;2023-04-12T15:44:50;0.80;;;0.80;;
1613;SDS011;800;48.824;9.346;2023-04-12T15:47:16;1.53;;;0.80;;
1613;SDS011;800;48.824;9.346;2023-04-12T15:49:41;1.43;;;0.90;;